createdAt,value
2023-03-26T00:00:31.990Z,75.11
2023-03-26T00:02:24.230Z,74.87
2023-03-26T00:03:58.791Z,74.56
2023-03-26T00:05:36.985Z,74.90
2023-03-26T00:07:10.637Z,74.80
2023-03-26T00:08:44.889Z,74.65
2023-03-26T00:10:18.549Z,74.90
2023-03-26T00:12:02.657Z,74.56
2023-03-26T00:13:35.937Z,74.96
2023-03-26T00:15:22.011Z,74.38
2023-03-26T00:18:51.738Z,74.17
2023-03-26T00:20:26.049Z,74.54
2023-03-26T00:22:11.377Z,74.54
2023-03-26T00:23:51.974Z,74.78
2023-03-26T00:25:28.581Z,74.09
2023-03-26T00:27:09.708Z,74.46
2023-03-26T00:28:34.053Z,74.03
2023-03-26T00:30:07.385Z,74.28
2023-03-26T00:31:49.615Z,74.32
2023-03-26T00:33:12.000Z,73.90
2023-03-26T00:34:57.236Z,74.02
2023-03-26T00:36:42.070Z,74.13
2023-03-26T00:38:17.648Z,74.03
2023-03-26T00:39:49.393Z,74.13
2023-03-26T00:41:36.514Z,74.09
2023-03-26T00:43:30.838Z,73.78
2023-03-26T00:45:05.269Z,73.84
2023-03-26T00:46:52.176Z,73.87
2023-03-26T00:48:44.382Z,74.26
2023-03-26T00:50:19.288Z,74.12
2023-03-26T00:52:05.254Z,74.23
2023-03-26T00:53:38.144Z,74.05
2023-03-26T00:55:23.842Z,73.91
2023-03-26T00:57:08.804Z,73.99
2023-03-26T00:58:32.946Z,73.72
2023-03-26T01:00:16.521Z,73.86
2023-03-26T01:01:52.317Z,73.75
2023-03-26T01:03:29.230Z,73.92
2023-03-26T01:05:02.856Z,73.82
2023-03-26T01:06:39.681Z,74.01
2023-03-26T01:08:09.381Z,74.12
2023-03-26T01:09:45.343Z,74.67
2023-03-26T01:11:39.648Z,74.55
2023-03-26T01:13:20.371Z,74.74
2023-03-26T01:14:53.826Z,74.53
2023-03-26T01:16:34.516Z,75.15
2023-03-26T01:18:09.441Z,74.84
2023-03-26T01:19:35.593Z,75.33
2023-03-26T01:21:21.130Z,75.11
2023-03-26T01:23:15.650Z,75.26
2023-03-26T01:25:00.279Z,75.27
2023-03-26T01:26:24.338Z,74.86
2023-03-26T01:28:18.670Z,75.01
2023-03-26T01:30:00.965Z,74.88
2023-03-26T01:31:41.656Z,74.99
2023-03-26T01:33:36.502Z,75.07
2023-03-26T01:35:12.567Z,74.98
2023-03-26T01:36:44.246Z,74.85
2023-03-26T01:38:13.433Z,74.93
2023-03-26T01:39:54.374Z,74.98
2023-03-26T01:41:28.283Z,74.29
2023-03-26T01:42:57.546Z,74.49
2023-03-26T01:44:31.269Z,74.20
2023-03-26T01:46:11.958Z,74.54
2023-03-26T01:47:41.781Z,74.18
2023-03-26T01:49:15.580Z,74.06
2023-03-26T01:51:00.659Z,73.81
2023-03-26T01:52:25.081Z,73.83
2023-03-26T01:53:48.633Z,74.02
2023-03-26T01:55:23.297Z,73.64
2023-03-26T01:57:09.973Z,74.00
2023-03-26T01:58:43.672Z,73.77
2023-03-26T02:00:28.534Z,73.93
2023-03-26T02:02:14.131Z,73.36
2023-03-26T02:04:08.642Z,73.58
2023-03-26T02:05:50.606Z,73.30
2023-03-26T02:07:32.774Z,73.29
2023-03-26T02:08:54.540Z,73.33
2023-03-26T02:10:24.273Z,73.33
2023-03-26T02:12:06.660Z,73.60
2023-03-26T02:13:40.270Z,73.27
2023-03-26T02:15:15.648Z,73.52
2023-03-26T02:16:56.436Z,73.37
2023-03-26T02:18:44.815Z,72.84
2023-03-26T02:20:38.703Z,72.63
2023-03-26T02:22:07.593Z,72.67
2023-03-26T02:24:02.874Z,72.75
2023-03-26T02:25:42.811Z,72.76
2023-03-26T02:27:29.981Z,72.75
2023-03-26T02:29:15.517Z,72.74
2023-03-26T02:30:56.882Z,72.90
2023-03-26T02:32:30.402Z,72.88
2023-03-26T02:34:06.560Z,72.96
2023-03-26T02:36:01.812Z,72.71
2023-03-26T02:37:56.655Z,72.57
2023-03-26T02:39:29.798Z,72.51
2023-03-26T02:41:17.962Z,72.47
2023-03-26T02:43:06.137Z,72.67
2023-03-26T02:44:47.335Z,72.81
2023-03-26T02:46:15.063Z,72.54
2023-03-26T02:48:15.844Z,72.40
2023-03-26T02:50:48.391Z,72.37
2023-03-26T02:52:49.377Z,72.06
2023-03-26T02:54:25.372Z,72.13
2023-03-26T02:56:24.886Z,72.67
2023-03-26T02:58:46.433Z,72.40
2023-03-26T03:00:26.271Z,72.90
2023-03-26T03:02:25.243Z,72.35
2023-03-26T03:04:10.766Z,72.00
2023-03-26T03:05:46.979Z,72.14
2023-03-26T03:07:26.273Z,72.45
2023-03-26T03:09:15.974Z,72.41
2023-03-26T03:11:22.119Z,72.08
2023-03-26T03:13:08.034Z,72.38
2023-03-26T03:14:41.274Z,72.54
2023-03-26T03:16:17.326Z,72.37
2023-03-26T03:17:50.790Z,72.53
2023-03-26T03:19:20.443Z,72.19
2023-03-26T03:21:06.646Z,72.01
2023-03-26T03:22:55.800Z,72.37
2023-03-26T03:24:49.717Z,72.10
2023-03-26T03:26:44.760Z,72.49
2023-03-26T03:28:23.470Z,72.61
2023-03-26T03:29:58.995Z,72.10
2023-03-26T03:31:52.651Z,71.78
2023-03-26T03:33:58.719Z,71.94
2023-03-26T03:35:42.025Z,72.00
2023-03-26T03:37:15.640Z,72.30
2023-03-26T03:39:13.440Z,72.51
2023-03-26T03:41:06.433Z,72.36
2023-03-26T03:43:00.265Z,72.34
2023-03-26T03:45:00.758Z,72.33
2023-03-26T03:47:00.866Z,72.12
2023-03-26T03:48:54.839Z,71.88
2023-03-26T03:50:43.807Z,72.14
2023-03-26T03:52:28.576Z,71.81
2023-03-26T03:54:14.627Z,71.99
2023-03-26T03:55:54.174Z,72.26
2023-03-26T03:57:34.093Z,72.25
2023-03-26T03:58:59.596Z,72.18
2023-03-26T04:00:41.608Z,72.07
2023-03-26T04:02:52.894Z,71.86
2023-03-26T04:04:28.952Z,72.17
2023-03-26T04:06:19.200Z,71.91
2023-03-26T04:08:09.710Z,72.41
2023-03-26T04:10:13.743Z,72.54
2023-03-26T04:12:06.061Z,72.48
2023-03-26T04:13:54.925Z,72.00
2023-03-26T04:15:48.923Z,72.00
2023-03-26T04:17:44.703Z,72.43
2023-03-26T04:19:19.301Z,72.72
2023-03-26T04:21:04.654Z,72.84
2023-03-26T04:22:47.019Z,73.08
2023-03-26T04:24:34.130Z,73.25
2023-03-26T04:26:31.835Z,72.96
2023-03-26T04:28:23.466Z,73.38
2023-03-26T04:30:19.953Z,73.42
2023-03-26T04:32:18.296Z,73.58
2023-03-26T04:34:05.974Z,73.42
2023-03-26T04:35:56.619Z,74.34
2023-03-26T04:37:40.771Z,74.64
2023-03-26T04:39:24.578Z,75.11
2023-03-26T04:41:19.400Z,75.28
2023-03-26T04:43:00.198Z,75.09
2023-03-26T04:44:58.763Z,75.53
2023-03-26T04:46:43.873Z,75.93
2023-03-26T04:48:22.920Z,76.36
2023-03-26T04:49:58.600Z,76.39
2023-03-26T04:51:46.641Z,76.57
2023-03-26T04:54:24.327Z,77.40
2023-03-26T04:55:54.626Z,77.26
2023-03-26T04:57:47.369Z,77.45
2023-03-26T04:59:38.952Z,77.40
2023-03-26T05:01:28.245Z,77.49
2023-03-26T05:03:02.053Z,77.97
2023-03-26T05:04:48.612Z,77.95
2023-03-26T05:06:36.725Z,78.01
2023-03-26T05:08:24.388Z,77.85
2023-03-26T05:10:09.532Z,77.79
2023-03-26T05:11:58.377Z,78.30
2023-03-26T05:13:47.440Z,78.21
2023-03-26T05:15:28.358Z,78.07
2023-03-26T05:16:53.313Z,78.06
2023-03-26T05:18:47.687Z,78.19
2023-03-26T05:20:35.914Z,78.02
2023-03-26T05:22:18.577Z,78.07
2023-03-26T05:24:12.629Z,78.21
2023-03-26T05:25:58.673Z,78.02
2023-03-26T05:27:39.756Z,78.22
2023-03-26T05:29:15.582Z,77.67
2023-03-26T05:31:12.854Z,77.88
2023-03-26T05:32:59.031Z,77.97
2023-03-26T05:34:35.605Z,78.01
2023-03-26T05:36:16.694Z,78.12
2023-03-26T05:37:53.308Z,77.71
2023-03-26T05:39:30.416Z,78.15
2023-03-26T05:41:22.597Z,77.63
2023-03-26T05:43:07.398Z,77.57
2023-03-26T05:44:54.340Z,78.03
2023-03-26T05:46:42.962Z,77.69
2023-03-26T05:48:18.420Z,77.26
2023-03-26T05:50:12.645Z,76.73
2023-03-26T05:52:08.032Z,76.70
2023-03-26T05:54:08.656Z,76.78
2023-03-26T05:56:10.530Z,76.30
2023-03-26T05:57:43.521Z,75.97
2023-03-26T06:00:02.487Z,76.29
2023-03-26T06:01:51.118Z,76.05
2023-03-26T06:03:46.183Z,75.99
2023-03-26T06:05:46.065Z,75.40
2023-03-26T06:07:13.036Z,75.32
2023-03-26T06:09:01.596Z,75.43
2023-03-26T06:10:44.909Z,75.27
2023-03-26T06:12:30.356Z,75.51
2023-03-26T06:14:11.333Z,75.23
2023-03-26T06:16:06.222Z,74.70
2023-03-26T06:17:54.056Z,74.25
2023-03-26T06:19:55.756Z,73.87
2023-03-26T06:21:57.817Z,73.98
2023-03-26T06:23:50.255Z,73.88
2023-03-26T06:25:31.085Z,73.97
2023-03-26T06:27:11.953Z,74.28
2023-03-26T06:29:03.943Z,74.06
2023-03-26T06:30:49.288Z,73.02
2023-03-26T06:32:51.536Z,72.80
2023-03-26T06:34:43.866Z,72.50
2023-03-26T06:36:29.157Z,72.42
2023-03-26T06:38:04.191Z,72.61
2023-03-26T06:39:57.680Z,72.86
2023-03-26T06:41:41.151Z,72.86
2023-03-26T06:43:18.645Z,72.26
2023-03-26T06:45:03.529Z,71.78
2023-03-26T06:46:55.808Z,71.59
2023-03-26T06:48:43.964Z,71.00
2023-03-26T06:50:46.940Z,70.80
2023-03-26T06:52:29.549Z,70.90
2023-03-26T06:54:25.140Z,70.99
2023-03-26T06:56:01.082Z,71.18
2023-03-26T06:57:53.541Z,70.64
2023-03-26T06:59:45.630Z,70.42
2023-03-26T07:01:26.021Z,70.09
2023-03-26T07:03:07.191Z,70.10
2023-03-26T07:05:01.273Z,69.67
2023-03-26T07:06:44.549Z,69.18
2023-03-26T07:08:45.793Z,68.83
2023-03-26T07:10:49.629Z,68.30
2023-03-26T07:12:41.948Z,68.40
2023-03-26T07:14:42.491Z,68.30
2023-03-26T07:16:31.013Z,68.02
2023-03-26T07:18:15.580Z,67.81
2023-03-26T07:20:01.784Z,67.67
2023-03-26T07:21:47.562Z,68.03
2023-03-26T07:23:45.099Z,68.37
2023-03-26T07:26:00.218Z,68.45
2023-03-26T07:27:54.637Z,68.15
2023-03-26T07:29:53.641Z,68.18
2023-03-26T07:31:46.430Z,68.22
2023-03-26T07:33:46.657Z,68.05
2023-03-26T07:35:50.492Z,68.34
2023-03-26T07:37:48.040Z,68.73
2023-03-26T07:41:15.913Z,69.33
2023-03-26T07:43:17.126Z,69.25
2023-03-26T07:45:49.507Z,68.30
2023-03-26T07:48:10.245Z,68.32
2023-03-26T07:50:05.534Z,68.03
2023-03-26T07:51:47.892Z,68.30
2023-03-26T07:53:28.862Z,68.46
2023-03-26T07:55:25.336Z,68.52
2023-03-26T07:57:33.398Z,68.67
2023-03-26T07:59:49.100Z,68.52
2023-03-26T08:01:38.821Z,68.32
2023-03-26T08:03:15.316Z,68.37
2023-03-26T08:06:00.224Z,67.47
2023-03-26T08:07:41.769Z,67.55
2023-03-26T08:09:23.222Z,68.11
2023-03-26T08:12:05.761Z,68.20
2023-03-26T08:13:39.248Z,68.33
2023-03-26T08:15:20.148Z,67.62
2023-03-26T08:16:42.257Z,67.68
2023-03-26T08:18:19.517Z,68.05
2023-03-26T08:20:08.284Z,68.05
2023-03-26T08:22:01.848Z,68.50
2023-03-26T08:23:23.781Z,68.79
2023-03-26T08:24:59.354Z,69.13
2023-03-26T08:26:29.528Z,69.27
2023-03-26T08:28:15.213Z,69.16
2023-03-26T08:29:51.021Z,68.77
2023-03-26T08:31:28.352Z,68.50
2023-03-26T08:33:02.390Z,68.56
2023-03-26T08:34:29.373Z,68.51
2023-03-26T08:36:14.557Z,68.77
2023-03-26T08:38:08.657Z,69.06
2023-03-26T08:39:42.637Z,69.24
2023-03-26T08:41:28.939Z,69.63
2023-03-26T08:43:13.822Z,69.46
2023-03-26T08:44:50.621Z,69.84
2023-03-26T08:46:23.633Z,69.24
2023-03-26T08:48:18.638Z,69.33
2023-03-26T08:50:06.687Z,68.99
2023-03-26T08:51:40.586Z,68.25
2023-03-26T08:53:14.539Z,67.77
2023-03-26T08:55:02.879Z,66.98
2023-03-26T08:56:38.857Z,67.29
2023-03-26T08:58:24.343Z,67.57
2023-03-26T09:00:09.653Z,67.47
2023-03-26T09:02:04.934Z,67.27
2023-03-26T09:03:47.365Z,67.40
2023-03-26T09:05:32.913Z,66.96
2023-03-26T09:07:18.669Z,66.92
2023-03-26T09:09:04.645Z,66.77
2023-03-26T09:10:47.703Z,66.76
2023-03-26T09:12:19.102Z,66.91
2023-03-26T09:14:07.445Z,67.19
2023-03-26T09:15:43.284Z,67.32
2023-03-26T09:17:12.804Z,67.22
2023-03-26T09:18:46.288Z,66.83
2023-03-26T09:20:08.890Z,66.84
2023-03-26T09:21:55.635Z,66.60
2023-03-26T09:23:17.244Z,65.91
2023-03-26T09:24:52.855Z,65.03
2023-03-26T09:26:39.865Z,64.83
2023-03-26T09:28:24.840Z,64.91
2023-03-26T09:29:58.605Z,65.44
2023-03-26T09:31:45.820Z,65.33
2023-03-26T09:33:19.732Z,64.85
2023-03-26T09:35:04.727Z,64.54
2023-03-26T09:36:58.659Z,64.38
2023-03-26T09:38:39.180Z,64.03
2023-03-26T09:40:20.157Z,63.88
2023-03-26T09:42:12.901Z,63.93
2023-03-26T09:43:57.958Z,64.05
2023-03-26T09:45:43.607Z,64.19
2023-03-26T09:47:11.117Z,64.45
2023-03-26T09:48:44.601Z,64.81
2023-03-26T09:50:29.941Z,63.93
2023-03-26T09:52:15.094Z,63.13
2023-03-26T09:53:50.449Z,62.11
2023-03-26T09:55:20.105Z,61.22
2023-03-26T09:57:12.696Z,61.27
2023-03-26T09:58:48.281Z,61.07
2023-03-26T10:00:21.655Z,60.66
2023-03-26T10:01:57.785Z,60.50
2023-03-26T10:03:34.215Z,60.30
2023-03-26T10:05:08.164Z,59.53
2023-03-26T10:06:44.431Z,58.93
2023-03-26T10:08:31.554Z,58.25
2023-03-26T10:10:17.440Z,58.53
2023-03-26T10:11:53.716Z,57.98
2023-03-26T10:13:39.676Z,58.06
2023-03-26T10:15:32.643Z,58.31
2023-03-26T10:17:15.668Z,58.07
2023-03-26T10:18:56.290Z,58.07
2023-03-26T10:20:30.368Z,58.32
2023-03-26T10:22:15.539Z,58.75
2023-03-26T10:24:00.593Z,58.72
2023-03-26T10:25:37.273Z,58.77
2023-03-26T10:27:19.147Z,59.17
2023-03-26T10:29:04.491Z,59.10
2023-03-26T10:30:59.672Z,59.22
2023-03-26T10:32:35.781Z,58.56
2023-03-26T10:34:28.784Z,58.14
2023-03-26T10:36:15.165Z,57.25
2023-03-26T10:37:48.507Z,57.50
2023-03-26T10:39:36.347Z,57.26
2023-03-26T10:41:18.321Z,57.71
2023-03-26T10:43:04.832Z,57.53
2023-03-26T10:44:54.920Z,57.24
2023-03-26T10:46:28.423Z,56.94
2023-03-26T10:48:13.971Z,55.61
2023-03-26T10:49:49.858Z,54.86
2023-03-26T10:51:12.968Z,55.10
2023-03-26T10:52:58.237Z,54.10
2023-03-26T10:54:31.761Z,54.21
2023-03-26T10:56:16.773Z,53.98
2023-03-26T10:57:50.232Z,54.25
2023-03-26T10:59:44.766Z,53.37
2023-03-26T11:01:34.919Z,53.84
2023-03-26T11:03:20.342Z,54.25
2023-03-26T11:05:14.703Z,54.60
2023-03-26T11:07:08.846Z,55.70
2023-03-26T11:08:44.775Z,55.88
2023-03-26T11:10:18.535Z,55.61
2023-03-26T11:12:03.889Z,55.50
2023-03-26T11:14:09.391Z,55.78
2023-03-26T11:15:38.515Z,55.89
2023-03-26T11:17:39.495Z,56.19
2023-03-26T11:19:12.562Z,56.48
2023-03-26T11:21:18.874Z,56.50
2023-03-26T11:23:15.659Z,56.73
2023-03-26T11:25:00.673Z,56.60
2023-03-26T11:26:41.194Z,56.13
2023-03-26T11:28:21.474Z,56.08
2023-03-26T11:30:06.788Z,56.07
2023-03-26T11:31:43.977Z,55.61
2023-03-26T11:33:17.965Z,55.72
2023-03-26T11:34:52.119Z,55.37
2023-03-26T11:36:45.191Z,54.84
2023-03-26T11:38:38.616Z,54.14
2023-03-26T11:40:21.204Z,53.08
2023-03-26T11:41:43.021Z,52.15
2023-03-26T11:43:44.881Z,50.65
2023-03-26T11:45:30.782Z,49.89
2023-03-26T11:47:14.473Z,49.58
2023-03-26T11:49:07.903Z,49.95
2023-03-26T11:50:41.035Z,49.02
2023-03-26T11:52:30.065Z,49.54
2023-03-26T11:54:15.344Z,50.12
2023-03-26T11:55:51.166Z,50.80
2023-03-26T11:57:44.380Z,51.19
2023-03-26T11:59:19.350Z,51.47
2023-03-26T12:01:06.228Z,52.45
2023-03-26T12:02:39.980Z,52.66
2023-03-26T12:04:13.624Z,52.28
2023-03-26T12:05:49.657Z,52.87
2023-03-26T12:07:35.844Z,53.60
2023-03-26T12:08:59.909Z,54.11
2023-03-26T12:10:45.439Z,54.02
2023-03-26T12:12:12.038Z,52.87
2023-03-26T12:13:36.484Z,52.44
2023-03-26T12:15:21.261Z,51.36
2023-03-26T12:17:06.280Z,50.79
2023-03-26T12:18:59.655Z,50.49
2023-03-26T12:20:32.849Z,49.41
2023-03-26T12:22:19.555Z,49.79
2023-03-26T12:24:05.594Z,49.53
2023-03-26T12:26:02.479Z,49.32
2023-03-26T12:27:52.786Z,49.01
2023-03-26T12:29:15.699Z,48.59
2023-03-26T12:31:03.839Z,48.00
2023-03-26T12:32:46.946Z,48.14
2023-03-26T12:34:32.394Z,48.42
2023-03-26T12:36:17.483Z,48.81
2023-03-26T12:37:59.365Z,49.89
2023-03-26T12:40:08.890Z,50.84
2023-03-26T12:42:52.740Z,51.65
2023-03-26T12:44:48.005Z,52.90
2023-03-26T12:45:31.601Z,54.96
2023-03-26T12:47:56.314Z,55.77
2023-03-26T12:49:11.466Z,56.22
2023-03-26T12:50:58.664Z,56.67
2023-03-26T12:52:45.221Z,56.73
2023-03-26T12:54:39.647Z,57.91
2023-03-26T12:56:25.036Z,58.27
2023-03-26T12:58:01.381Z,60.11
2023-03-26T12:59:53.486Z,61.51
2023-03-26T13:01:34.306Z,63.14
2023-03-26T13:03:19.768Z,64.84
2023-03-26T13:05:13.081Z,65.32
2023-03-26T13:07:02.148Z,65.93
2023-03-26T13:08:44.489Z,65.39
2023-03-26T13:10:17.929Z,65.56
2023-03-26T13:12:02.659Z,64.83
2023-03-26T13:13:36.429Z,64.10
2023-03-26T13:15:12.303Z,64.10
2023-03-26T13:16:53.205Z,63.33
2023-03-26T13:18:38.576Z,61.56
2023-03-26T13:20:23.954Z,59.61
2023-03-26T13:21:57.887Z,58.15
2023-03-26T13:23:43.814Z,58.00
2023-03-26T13:25:28.654Z,56.56
2023-03-26T13:26:50.798Z,55.21
2023-03-26T13:28:31.378Z,55.29
2023-03-26T13:30:12.533Z,55.15
2023-03-26T13:31:58.677Z,55.73
2023-03-26T13:33:44.623Z,55.64
2023-03-26T13:35:20.593Z,55.94
2023-03-26T13:37:15.707Z,55.92
2023-03-26T13:39:08.994Z,56.38
2023-03-26T13:40:53.984Z,56.46
2023-03-26T13:42:39.357Z,56.67
2023-03-26T13:44:24.779Z,57.47
2023-03-26T13:46:18.730Z,56.87
2023-03-26T13:48:11.323Z,56.14
2023-03-26T13:49:56.393Z,55.90
2023-03-26T13:51:29.308Z,54.84
2023-03-26T13:53:13.277Z,54.35
2023-03-26T13:55:06.498Z,52.35
2023-03-26T13:57:00.240Z,51.35
2023-03-26T13:58:34.295Z,50.55
2023-03-26T14:00:21.615Z,49.52
2023-03-26T14:01:55.550Z,49.94
2023-03-26T14:03:24.583Z,50.29
2023-03-26T14:05:09.908Z,51.21
2023-03-26T14:06:40.666Z,51.73
2023-03-26T14:08:21.704Z,52.35
2023-03-26T14:10:12.675Z,52.80
2023-03-26T14:11:57.590Z,53.32
2023-03-26T14:13:24.332Z,54.24
2023-03-26T14:15:09.560Z,54.91
2023-03-26T14:17:04.687Z,55.15
2023-03-26T14:18:40.344Z,54.94
2023-03-26T14:20:25.530Z,54.49
2023-03-26T14:22:01.325Z,53.60
2023-03-26T14:23:46.518Z,53.56
2023-03-26T14:25:20.155Z,52.88
2023-03-26T14:27:05.685Z,52.16
2023-03-26T14:28:42.906Z,51.39
2023-03-26T14:30:31.188Z,50.23
2023-03-26T14:32:13.429Z,49.55
2023-03-26T14:33:44.755Z,48.75
2023-03-26T14:35:29.185Z,48.68
2023-03-26T14:36:53.097Z,49.38
2023-03-26T14:38:41.951Z,49.41
2023-03-26T14:40:08.151Z,49.19
2023-03-26T14:41:41.606Z,50.52
2023-03-26T14:43:17.198Z,51.03
2023-03-26T14:45:05.497Z,51.95
2023-03-26T14:46:59.780Z,51.90
2023-03-26T14:48:32.825Z,51.90
2023-03-26T14:50:16.087Z,52.09
2023-03-26T14:51:42.621Z,52.68
2023-03-26T14:53:06.779Z,52.37
2023-03-26T14:54:59.744Z,53.09
2023-03-26T14:56:24.333Z,53.13
2023-03-26T14:57:53.497Z,53.30
2023-03-26T14:59:38.690Z,53.93
2023-03-26T15:01:14.745Z,53.90
2023-03-26T15:03:00.396Z,54.22
2023-03-26T15:04:47.269Z,54.69
2023-03-26T15:06:14.197Z,54.36
2023-03-26T15:07:38.348Z,54.40
2023-03-26T15:09:11.497Z,54.61
2023-03-26T15:10:46.946Z,55.49
2023-03-26T15:12:13.043Z,55.34
2023-03-26T15:13:46.878Z,55.71
2023-03-26T15:15:20.371Z,55.75
2023-03-26T15:17:01.169Z,56.23
2023-03-26T15:18:45.725Z,55.83
2023-03-26T15:20:25.937Z,56.18
2023-03-26T15:22:07.452Z,56.09
2023-03-26T15:23:41.133Z,56.20
2023-03-26T15:25:14.168Z,56.47
2023-03-26T15:27:07.757Z,56.60
2023-03-26T15:28:48.565Z,56.66
2023-03-26T15:30:42.076Z,56.75
2023-03-26T15:32:18.116Z,56.56
2023-03-26T15:34:08.776Z,56.51
2023-03-26T15:36:01.903Z,56.72
2023-03-26T15:37:51.256Z,56.59
2023-03-26T15:39:59.459Z,56.29
2023-03-26T15:41:43.704Z,56.97
2023-03-26T15:43:28.880Z,56.22
2023-03-26T15:45:00.668Z,55.68
2023-03-26T15:46:35.856Z,55.60
2023-03-26T15:48:17.668Z,56.06
2023-03-26T15:49:53.654Z,55.54
2023-03-26T15:51:22.482Z,55.68
2023-03-26T15:52:55.966Z,55.36
2023-03-26T15:54:36.442Z,55.26
2023-03-26T15:56:00.547Z,55.09
2023-03-26T15:57:22.365Z,55.48
2023-03-26T15:59:04.733Z,55.43
2023-03-26T16:00:49.721Z,55.04
2023-03-26T16:02:23.719Z,55.85
2023-03-26T16:03:49.998Z,55.99
2023-03-26T16:05:16.346Z,56.14
2023-03-26T16:06:50.400Z,56.20
2023-03-26T16:08:39.840Z,56.53
2023-03-26T16:10:14.054Z,56.78
2023-03-26T16:11:57.845Z,56.69
2023-03-26T16:13:31.348Z,56.94
2023-03-26T16:14:53.760Z,56.79
2023-03-26T16:16:28.135Z,56.92
2023-03-26T16:18:06.404Z,56.87
2023-03-26T16:19:28.011Z,56.93
2023-03-26T16:21:03.371Z,56.90
2023-03-26T16:22:56.435Z,56.90
2023-03-26T16:24:20.570Z,57.39
2023-03-26T16:25:51.657Z,57.08
2023-03-26T16:27:27.720Z,57.05
2023-03-26T16:29:02.305Z,57.03
2023-03-26T16:30:55.987Z,57.08
2023-03-26T16:32:20.377Z,57.13
2023-03-26T16:33:53.649Z,57.01
2023-03-26T16:35:27.364Z,57.24
2023-03-26T16:37:12.481Z,57.26
2023-03-26T16:38:36.636Z,57.28
2023-03-26T16:40:13.587Z,57.39
2023-03-26T16:41:56.321Z,57.70
2023-03-26T16:43:35.549Z,57.70
2023-03-26T16:45:20.878Z,57.61
2023-03-26T16:47:14.706Z,57.46
2023-03-26T16:48:48.080Z,57.55
2023-03-26T16:50:28.980Z,57.67
2023-03-26T16:51:56.404Z,57.91
2023-03-26T16:53:49.611Z,57.71
2023-03-26T16:55:43.674Z,57.72
2023-03-26T16:57:24.549Z,58.03
2023-03-26T16:59:17.920Z,58.15
2023-03-26T17:01:04.044Z,58.25
2023-03-26T17:02:53.721Z,58.07
2023-03-26T17:04:27.346Z,58.22
2023-03-26T17:06:13.950Z,58.14
2023-03-26T17:07:47.181Z,58.27
2023-03-26T17:09:32.089Z,58.29
2023-03-26T17:11:15.782Z,58.49
2023-03-26T17:12:49.253Z,58.55
2023-03-26T17:14:13.996Z,58.67
2023-03-26T17:15:37.784Z,58.76
2023-03-26T17:17:01.941Z,58.70
2023-03-26T17:18:26.621Z,58.70
2023-03-26T17:20:00.716Z,58.79
2023-03-26T17:21:45.529Z,58.73
2023-03-26T17:23:31.779Z,59.03
2023-03-26T17:25:10.376Z,58.98
2023-03-26T17:27:11.714Z,59.36
2023-03-26T17:28:45.006Z,59.36
2023-03-26T17:30:30.679Z,59.36
2023-03-26T17:32:12.739Z,59.44
2023-03-26T17:33:57.671Z,59.78
2023-03-26T17:35:43.216Z,59.83
2023-03-26T17:37:16.456Z,59.69
2023-03-26T17:38:49.513Z,59.89
2023-03-26T17:40:43.731Z,60.10
2023-03-26T17:42:16.978Z,60.08
2023-03-26T17:44:02.032Z,60.02
2023-03-26T17:45:37.724Z,60.15
2023-03-26T17:47:06.956Z,60.33
2023-03-26T17:49:00.335Z,60.47
2023-03-26T17:50:42.508Z,60.30
2023-03-26T17:52:18.024Z,60.87
2023-03-26T17:54:07.718Z,60.67
2023-03-26T17:55:36.940Z,61.01
2023-03-26T17:57:22.745Z,61.20
2023-03-26T17:59:11.220Z,61.17
2023-03-26T18:01:05.515Z,61.27
2023-03-26T18:02:43.662Z,61.53
2023-03-26T18:04:19.631Z,61.72
2023-03-26T18:05:55.574Z,61.44
2023-03-26T18:07:31.915Z,62.01
2023-03-26T18:09:16.589Z,62.05
2023-03-26T18:13:17.777Z,62.43
2023-03-26T18:17:11.912Z,62.75
2023-03-26T18:18:58.579Z,62.58
2023-03-26T18:20:45.826Z,63.24
2023-03-26T18:22:40.732Z,63.63
2023-03-26T18:24:05.266Z,63.42
2023-03-26T18:25:40.904Z,63.70
2023-03-26T18:27:17.227Z,64.33
2023-03-26T18:29:10.833Z,64.26
2023-03-26T18:30:55.016Z,64.43
2023-03-26T18:32:31.087Z,64.63
2023-03-26T18:34:05.054Z,64.96
2023-03-26T18:35:59.751Z,65.39
2023-03-26T18:37:48.269Z,65.57
2023-03-26T18:39:35.535Z,65.44
2023-03-26T18:41:12.173Z,65.86
2023-03-26T18:42:54.714Z,66.33
2023-03-26T18:44:19.179Z,66.17
2023-03-26T18:46:04.461Z,66.37
2023-03-26T18:47:38.093Z,66.49
2023-03-26T18:49:14.025Z,66.23
2023-03-26T18:51:08.422Z,66.46
2023-03-26T18:52:49.098Z,66.73
2023-03-26T18:54:25.323Z,66.84
2023-03-26T18:55:59.000Z,66.75
2023-03-26T18:57:35.036Z,66.71
2023-03-26T18:58:57.710Z,67.14
2023-03-26T19:00:20.610Z,67.29
2023-03-26T19:02:14.676Z,67.79
2023-03-26T19:03:36.709Z,67.91
2023-03-26T19:04:58.774Z,68.00
2023-03-26T19:06:35.926Z,68.13
2023-03-26T19:08:01.011Z,67.80
2023-03-26T19:09:32.074Z,68.01
2023-03-26T19:11:17.835Z,68.28
2023-03-26T19:12:53.781Z,68.60
2023-03-26T19:14:35.914Z,68.52
2023-03-26T19:16:12.076Z,68.22
2023-03-26T19:17:57.183Z,68.58
2023-03-26T19:19:31.981Z,68.68
2023-03-26T19:21:05.784Z,68.42
2023-03-26T19:22:46.674Z,68.48
2023-03-26T19:24:09.418Z,69.06
2023-03-26T19:25:50.683Z,69.21
2023-03-26T19:27:24.332Z,69.34
2023-03-26T19:28:56.024Z,69.18
2023-03-26T19:30:29.395Z,69.62
2023-03-26T19:31:51.860Z,69.77
2023-03-26T19:33:24.978Z,69.66
2023-03-26T19:35:15.440Z,70.05
2023-03-26T19:36:57.739Z,69.62
2023-03-26T19:38:34.446Z,69.74
2023-03-26T19:39:58.553Z,70.01
2023-03-26T19:41:31.835Z,69.51
2023-03-26T19:43:04.528Z,69.72
2023-03-26T19:44:46.333Z,69.94
2023-03-26T19:46:19.797Z,69.94
2023-03-26T19:48:04.071Z,69.82
2023-03-26T19:49:45.073Z,69.91
2023-03-26T19:51:19.923Z,70.03
2023-03-26T19:53:14.677Z,70.37
2023-03-26T19:54:39.012Z,70.35
2023-03-26T19:56:33.769Z,70.55
2023-03-26T19:57:56.026Z,70.35
2023-03-26T19:59:28.909Z,70.83
2023-03-26T20:00:53.106Z,70.65
2023-03-26T20:02:26.375Z,70.96
2023-03-26T20:03:48.542Z,70.97
2023-03-26T20:05:34.726Z,70.91
2023-03-26T20:07:19.961Z,70.85
2023-03-26T20:08:50.458Z,70.74
2023-03-26T20:10:14.739Z,70.61
2023-03-26T20:11:39.605Z,70.54
2023-03-26T20:13:09.609Z,70.44
2023-03-26T20:14:45.086Z,70.29
2023-03-26T20:16:17.256Z,70.49
2023-03-26T20:18:11.187Z,70.56
2023-03-26T20:19:44.323Z,70.75
2023-03-26T20:21:16.319Z,71.14
2023-03-26T20:22:40.474Z,71.42
2023-03-26T20:24:26.283Z,71.14
2023-03-26T20:25:53.031Z,71.45
2023-03-26T20:27:26.794Z,71.49
2023-03-26T20:28:52.877Z,71.61
2023-03-26T20:32:18.333Z,71.55
2023-03-26T20:33:54.168Z,71.93
2023-03-26T20:35:36.252Z,71.67
2023-03-26T20:37:01.255Z,71.76
2023-03-26T20:38:39.400Z,72.08
2023-03-26T20:40:16.567Z,72.10
2023-03-26T20:41:50.152Z,72.29
2023-03-26T20:43:15.974Z,72.46
2023-03-26T20:44:38.238Z,72.60
2023-03-26T20:46:23.949Z,72.28
2023-03-26T20:48:04.996Z,72.48
2023-03-26T20:49:41.120Z,72.39
2023-03-26T20:51:22.276Z,72.48
2023-03-26T20:53:06.726Z,72.49
2023-03-26T20:54:36.146Z,72.68
2023-03-26T20:56:11.693Z,72.26
2023-03-26T20:57:56.722Z,72.24
2023-03-26T20:59:28.024Z,72.45
2023-03-26T21:00:51.805Z,72.43
2023-03-26T21:02:16.412Z,72.32
2023-03-26T21:03:38.785Z,72.43
2023-03-26T21:05:14.588Z,72.28
2023-03-26T21:06:48.125Z,72.35
2023-03-26T21:08:33.686Z,72.15
2023-03-26T21:09:57.972Z,71.75
2023-03-26T21:11:31.492Z,71.57
2023-03-26T21:13:00.675Z,71.95
2023-03-26T21:14:30.493Z,72.02
2023-03-26T21:15:52.583Z,71.65
2023-03-26T21:17:27.112Z,71.82
2023-03-26T21:19:00.977Z,71.76
2023-03-26T21:20:36.983Z,71.71
2023-03-26T21:21:59.145Z,71.45
2023-03-26T21:23:25.858Z,71.63
2023-03-26T21:24:59.325Z,71.92
2023-03-26T21:26:33.973Z,71.71
2023-03-26T21:28:28.854Z,71.74
2023-03-26T21:29:58.179Z,71.86
2023-03-26T21:31:31.561Z,71.51
2023-03-26T21:33:05.481Z,71.48
2023-03-26T21:34:47.802Z,71.50
2023-03-26T21:36:24.845Z,71.38
2023-03-26T21:37:58.864Z,71.51
2023-03-26T21:39:34.956Z,71.53
2023-03-26T21:41:08.824Z,71.08
2023-03-26T21:42:33.238Z,71.26
2023-03-26T21:43:55.382Z,70.87
2023-03-26T21:45:25.003Z,71.11
2023-03-26T21:47:18.538Z,70.84
2023-03-26T21:48:48.091Z,70.81
2023-03-26T21:50:24.296Z,70.53
2023-03-26T21:51:57.759Z,70.92
2023-03-26T21:53:21.973Z,70.67
2023-03-26T21:55:09.670Z,70.45
2023-03-26T21:56:50.808Z,70.59
2023-03-26T21:58:15.281Z,70.44
2023-03-26T21:59:48.520Z,70.40
2023-03-26T22:01:13.505Z,70.14